sensor_id;sensor_type;location;lat;lon;timestamp;P1;durP1;ratioP1;P2;durP2;ratioP2
78858;SDS011;68210;52.032;4.634;2024-02-28T00:00:49;9.43;;;4.90;;
78858;SDS011;68210;52.032;4.634;2024-02-28T00:02:53;7.45;;;4.45;;
78858;SDS011;68210;52.032;4.634;2024-02-28T00:04:53;10.50;;;4.32;;
78858;SDS011;68210;52.032;4.634;2024-02-28T00:06:54;8.25;;;4.85;;
78858;SDS011;68210;52.032;4.634;2024-02-28T00:08:54;8.43;;;4.25;;
78858;SDS011;68210;52.032;4.634;2024-02-28T00:10:55;8.13;;;4.68;;
78858;SDS011;68210;52.032;4.634;2024-02-28T00:12:55;8.90;;;4.60;;
78858;SDS011;68210;52.032;4.634;2024-02-28T00:14:55;7.57;;;5.05;;
78858;SDS011;68210;52.032;4.634;2024-02-28T00:16:56;9.93;;;4.60;;
78858;SDS011;68210;52.032;4.634;2024-02-28T00:18:56;6.78;;;4.28;;
78858;SDS011;68210;52.032;4.634;2024-02-28T00:20:56;11.43;;;4.65;;
78858;SDS011;68210;52.032;4.634;2024-02-28T00:22:57;9.05;;;4.35;;
78858;SDS011;68210;52.032;4.634;2024-02-28T00:24:57;8.13;;;4.20;;
78858;SDS011;68210;52.032;4.634;2024-02-28T00:26:58;7.30;;;4.43;;
78858;SDS011;68210;52.032;4.634;2024-02-28T00:28:58;6.45;;;4.25;;
78858;SDS011;68210;52.032;4.634;2024-02-28T00:30:58;6.28;;;4.15;;
78858;SDS011;68210;52.032;4.634;2024-02-28T00:32:59;4.47;;;4.05;;
78858;SDS011;68210;52.032;4.634;2024-02-28T00:35:00;7.95;;;3.90;;
78858;SDS011;68210;52.032;4.634;2024-02-28T00:37:00;5.07;;;3.72;;
78858;SDS011;68210;52.032;4.634;2024-02-28T00:39:00;9.55;;;4.20;;
78858;SDS011;68210;52.032;4.634;2024-02-28T00:41:01;8.15;;;4.05;;
78858;SDS011;68210;52.032;4.634;2024-02-28T00:43:01;7.65;;;4.18;;
78858;SDS011;68210;52.032;4.634;2024-02-28T00:45:02;9.75;;;4.40;;
78858;SDS011;68210;52.032;4.634;2024-02-28T00:47:03;18.52;;;4.72;;
78858;SDS011;68210;52.032;4.634;2024-02-28T00:49:04;5.57;;;3.70;;
78858;SDS011;68210;52.032;4.634;2024-02-28T00:51:04;7.28;;;4.40;;
78858;SDS011;68210;52.032;4.634;2024-02-28T00:53:05;7.30;;;4.20;;
78858;SDS011;68210;52.032;4.634;2024-02-28T00:55:05;6.25;;;4.28;;
78858;SDS011;68210;52.032;4.634;2024-02-28T00:57:06;11.25;;;4.07;;
78858;SDS011;68210;52.032;4.634;2024-02-28T00:59:06;13.90;;;4.00;;
78858;SDS011;68210;52.032;4.634;2024-02-28T01:01:10;7.13;;;3.80;;
78858;SDS011;68210;52.032;4.634;2024-02-28T01:03:10;5.72;;;3.72;;
78858;SDS011;68210;52.032;4.634;2024-02-28T01:05:13;6.45;;;4.07;;
78858;SDS011;68210;52.032;4.634;2024-02-28T01:07:14;7.72;;;3.50;;
78858;SDS011;68210;52.032;4.634;2024-02-28T01:09:14;6.13;;;3.72;;
78858;SDS011;68210;52.032;4.634;2024-02-28T01:11:15;5.53;;;3.60;;
78858;SDS011;68210;52.032;4.634;2024-02-28T01:13:15;5.55;;;3.53;;
78858;SDS011;68210;52.032;4.634;2024-02-28T01:15:16;8.38;;;3.88;;
78858;SDS011;68210;52.032;4.634;2024-02-28T01:17:16;4.75;;;3.33;;
78858;SDS011;68210;52.032;4.634;2024-02-28T01:19:16;5.05;;;2.92;;
78858;SDS011;68210;52.032;4.634;2024-02-28T01:21:17;9.75;;;3.55;;
78858;SDS011;68210;52.032;4.634;2024-02-28T01:23:17;8.63;;;4.05;;
78858;SDS011;68210;52.032;4.634;2024-02-28T01:25:18;6.70;;;3.20;;
78858;SDS011;68210;52.032;4.634;2024-02-28T01:27:18;6.95;;;3.60;;
78858;SDS011;68210;52.032;4.634;2024-02-28T01:29:18;5.22;;;3.33;;
78858;SDS011;68210;52.032;4.634;2024-02-28T01:31:19;7.65;;;3.33;;
78858;SDS011;68210;52.032;4.634;2024-02-28T01:33:19;6.63;;;3.63;;
78858;SDS011;68210;52.032;4.634;2024-02-28T01:35:20;7.85;;;3.85;;
78858;SDS011;68210;52.032;4.634;2024-02-28T01:37:20;8.68;;;3.53;;
78858;SDS011;68210;52.032;4.634;2024-02-28T01:39:22;9.57;;;3.45;;
78858;SDS011;68210;52.032;4.634;2024-02-28T01:41:23;6.28;;;3.30;;
78858;SDS011;68210;52.032;4.634;2024-02-28T01:43:23;5.78;;;3.65;;
78858;SDS011;68210;52.032;4.634;2024-02-28T01:45:23;8.60;;;4.00;;
78858;SDS011;68210;52.032;4.634;2024-02-28T01:47:24;7.75;;;3.75;;
78858;SDS011;68210;52.032;4.634;2024-02-28T01:49:24;8.07;;;3.22;;
78858;SDS011;68210;52.032;4.634;2024-02-28T01:51:25;7.13;;;3.78;;
78858;SDS011;68210;52.032;4.634;2024-02-28T01:53:29;5.82;;;4.00;;
78858;SDS011;68210;52.032;4.634;2024-02-28T01:55:29;9.23;;;4.10;;
78858;SDS011;68210;52.032;4.634;2024-02-28T01:57:31;6.53;;;3.70;;
78858;SDS011;68210;52.032;4.634;2024-02-28T01:59:33;6.20;;;3.80;;
78858;SDS011;68210;52.032;4.634;2024-02-28T02:01:34;8.10;;;4.07;;
78858;SDS011;68210;52.032;4.634;2024-02-28T02:03:36;11.40;;;4.15;;
78858;SDS011;68210;52.032;4.634;2024-02-28T02:05:36;6.78;;;3.60;;
78858;SDS011;68210;52.032;4.634;2024-02-28T02:07:37;7.05;;;4.13;;
78858;SDS011;68210;52.032;4.634;2024-02-28T02:09:39;8.18;;;4.00;;
78858;SDS011;68210;52.032;4.634;2024-02-28T02:11:40;5.70;;;4.07;;
78858;SDS011;68210;52.032;4.634;2024-02-28T02:13:49;9.15;;;4.00;;
78858;SDS011;68210;52.032;4.634;2024-02-28T02:15:51;9.02;;;4.15;;
78858;SDS011;68210;52.032;4.634;2024-02-28T02:17:51;7.57;;;4.00;;
78858;SDS011;68210;52.032;4.634;2024-02-28T02:19:51;6.07;;;3.78;;
78858;SDS011;68210;52.032;4.634;2024-02-28T02:21:52;6.18;;;3.40;;
78858;SDS011;68210;52.032;4.634;2024-02-28T02:23:55;9.00;;;4.30;;
78858;SDS011;68210;52.032;4.634;2024-02-28T02:25:55;6.30;;;3.88;;
78858;SDS011;68210;52.032;4.634;2024-02-28T02:27:56;8.10;;;3.63;;
78858;SDS011;68210;52.032;4.634;2024-02-28T02:29:56;7.20;;;4.45;;
78858;SDS011;68210;52.032;4.634;2024-02-28T02:31:57;10.00;;;4.55;;
78858;SDS011;68210;52.032;4.634;2024-02-28T02:33:57;8.48;;;4.90;;
78858;SDS011;68210;52.032;4.634;2024-02-28T02:35:57;6.30;;;4.25;;
78858;SDS011;68210;52.032;4.634;2024-02-28T02:37:58;10.35;;;4.90;;
78858;SDS011;68210;52.032;4.634;2024-02-28T02:39:58;8.27;;;4.25;;
78858;SDS011;68210;52.032;4.634;2024-02-28T02:41:59;11.15;;;4.90;;
78858;SDS011;68210;52.032;4.634;2024-02-28T02:44:01;10.68;;;5.40;;
78858;SDS011;68210;52.032;4.634;2024-02-28T02:46:01;9.30;;;4.93;;
78858;SDS011;68210;52.032;4.634;2024-02-28T02:48:02;10.73;;;5.07;;
78858;SDS011;68210;52.032;4.634;2024-02-28T02:50:02;7.72;;;5.25;;
78858;SDS011;68210;52.032;4.634;2024-02-28T02:52:03;9.25;;;5.40;;
78858;SDS011;68210;52.032;4.634;2024-02-28T02:54:04;8.20;;;5.22;;
78858;SDS011;68210;52.032;4.634;2024-02-28T02:56:04;10.43;;;5.63;;
78858;SDS011;68210;52.032;4.634;2024-02-28T02:58:05;9.07;;;5.20;;
78858;SDS011;68210;52.032;4.634;2024-02-28T03:00:07;11.80;;;5.57;;
78858;SDS011;68210;52.032;4.634;2024-02-28T03:02:09;12.80;;;5.88;;
78858;SDS011;68210;52.032;4.634;2024-02-28T03:04:09;12.95;;;5.80;;
78858;SDS011;68210;52.032;4.634;2024-02-28T03:06:09;9.98;;;5.13;;
78858;SDS011;68210;52.032;4.634;2024-02-28T03:08:10;9.90;;;6.07;;
78858;SDS011;68210;52.032;4.634;2024-02-28T03:10:10;9.90;;;5.57;;
78858;SDS011;68210;52.032;4.634;2024-02-28T03:12:10;14.23;;;6.18;;
78858;SDS011;68210;52.032;4.634;2024-02-28T03:14:11;14.60;;;5.55;;
78858;SDS011;68210;52.032;4.634;2024-02-28T03:16:11;9.65;;;5.60;;
78858;SDS011;68210;52.032;4.634;2024-02-28T03:18:11;10.10;;;5.68;;
78858;SDS011;68210;52.032;4.634;2024-02-28T03:20:12;8.70;;;5.38;;
78858;SDS011;68210;52.032;4.634;2024-02-28T03:22:15;8.65;;;5.57;;
78858;SDS011;68210;52.032;4.634;2024-02-28T03:24:15;10.77;;;5.85;;
78858;SDS011;68210;52.032;4.634;2024-02-28T03:26:17;7.68;;;5.85;;
78858;SDS011;68210;52.032;4.634;2024-02-28T03:28:17;9.98;;;5.13;;
78858;SDS011;68210;52.032;4.634;2024-02-28T03:30:17;9.07;;;5.55;;
78858;SDS011;68210;52.032;4.634;2024-02-28T03:32:18;9.57;;;5.25;;
78858;SDS011;68210;52.032;4.634;2024-02-28T03:34:18;9.75;;;5.45;;
78858;SDS011;68210;52.032;4.634;2024-02-28T03:36:19;8.65;;;5.70;;
78858;SDS011;68210;52.032;4.634;2024-02-28T03:38:19;10.00;;;5.68;;
78858;SDS011;68210;52.032;4.634;2024-02-28T03:40:20;9.13;;;4.97;;
78858;SDS011;68210;52.032;4.634;2024-02-28T03:42:20;9.68;;;4.80;;
78858;SDS011;68210;52.032;4.634;2024-02-28T03:44:21;8.38;;;5.47;;
78858;SDS011;68210;52.032;4.634;2024-02-28T03:46:21;10.50;;;5.30;;
78858;SDS011;68210;52.032;4.634;2024-02-28T03:48:22;10.93;;;5.80;;
78858;SDS011;68210;52.032;4.634;2024-02-28T03:50:22;9.85;;;4.93;;
78858;SDS011;68210;52.032;4.634;2024-02-28T03:52:23;12.30;;;5.22;;
78858;SDS011;68210;52.032;4.634;2024-02-28T03:54:23;10.80;;;5.38;;
78858;SDS011;68210;52.032;4.634;2024-02-28T03:56:24;11.07;;;4.85;;
78858;SDS011;68210;52.032;4.634;2024-02-28T03:58:25;8.95;;;4.90;;
78858;SDS011;68210;52.032;4.634;2024-02-28T04:00:25;11.02;;;5.05;;
78858;SDS011;68210;52.032;4.634;2024-02-28T04:02:26;7.45;;;5.10;;
78858;SDS011;68210;52.032;4.634;2024-02-28T04:04:26;8.98;;;5.60;;
78858;SDS011;68210;52.032;4.634;2024-02-28T04:06:26;11.63;;;5.00;;
78858;SDS011;68210;52.032;4.634;2024-02-28T04:08:27;14.68;;;6.35;;
78858;SDS011;68210;52.032;4.634;2024-02-28T04:10:27;15.95;;;6.35;;
78858;SDS011;68210;52.032;4.634;2024-02-28T04:12:27;13.50;;;6.43;;
78858;SDS011;68210;52.032;4.634;2024-02-28T04:14:28;12.25;;;7.03;;
78858;SDS011;68210;52.032;4.634;2024-02-28T04:16:28;13.13;;;6.57;;
78858;SDS011;68210;52.032;4.634;2024-02-28T04:18:29;12.82;;;6.28;;
78858;SDS011;68210;52.032;4.634;2024-02-28T04:20:30;14.95;;;7.03;;
78858;SDS011;68210;52.032;4.634;2024-02-28T04:22:30;14.93;;;7.20;;
78858;SDS011;68210;52.032;4.634;2024-02-28T04:24:31;14.57;;;7.30;;
78858;SDS011;68210;52.032;4.634;2024-02-28T04:26:32;15.45;;;7.00;;
78858;SDS011;68210;52.032;4.634;2024-02-28T04:28:33;12.75;;;7.35;;
78858;SDS011;68210;52.032;4.634;2024-02-28T04:30:33;17.30;;;7.65;;
78858;SDS011;68210;52.032;4.634;2024-02-28T04:32:34;12.00;;;7.05;;
78858;SDS011;68210;52.032;4.634;2024-02-28T04:34:36;16.83;;;7.18;;
78858;SDS011;68210;52.032;4.634;2024-02-28T04:36:36;13.13;;;7.25;;
78858;SDS011;68210;52.032;4.634;2024-02-28T04:38:36;14.85;;;7.20;;
78858;SDS011;68210;52.032;4.634;2024-02-28T04:40:37;15.65;;;7.75;;
78858;SDS011;68210;52.032;4.634;2024-02-28T04:42:37;13.13;;;7.43;;
78858;SDS011;68210;52.032;4.634;2024-02-28T04:44:38;21.48;;;8.07;;
78858;SDS011;68210;52.032;4.634;2024-02-28T04:46:38;15.13;;;9.10;;
78858;SDS011;68210;52.032;4.634;2024-02-28T04:48:38;15.50;;;8.18;;
78858;SDS011;68210;52.032;4.634;2024-02-28T04:50:39;15.20;;;8.15;;
78858;SDS011;68210;52.032;4.634;2024-02-28T04:52:39;14.18;;;8.00;;
78858;SDS011;68210;52.032;4.634;2024-02-28T04:54:40;15.43;;;8.02;;
78858;SDS011;68210;52.032;4.634;2024-02-28T04:56:41;13.52;;;7.65;;
78858;SDS011;68210;52.032;4.634;2024-02-28T04:58:41;12.52;;;7.60;;
78858;SDS011;68210;52.032;4.634;2024-02-28T05:00:42;16.45;;;8.00;;
78858;SDS011;68210;52.032;4.634;2024-02-28T05:02:42;19.10;;;9.05;;
78858;SDS011;68210;52.032;4.634;2024-02-28T05:05:15;15.55;;;8.93;;
78858;SDS011;68210;52.032;4.634;2024-02-28T05:07:15;15.05;;;8.43;;
78858;SDS011;68210;52.032;4.634;2024-02-28T05:09:15;16.33;;;9.60;;
78858;SDS011;68210;52.032;4.634;2024-02-28T05:11:16;15.95;;;8.98;;
78858;SDS011;68210;52.032;4.634;2024-02-28T05:13:16;15.43;;;8.93;;
78858;SDS011;68210;52.032;4.634;2024-02-28T05:15:16;15.80;;;8.35;;
78858;SDS011;68210;52.032;4.634;2024-02-28T05:17:17;20.30;;;9.13;;
78858;SDS011;68210;52.032;4.634;2024-02-28T05:19:17;19.70;;;9.07;;
78858;SDS011;68210;52.032;4.634;2024-02-28T05:21:18;17.75;;;9.63;;
78858;SDS011;68210;52.032;4.634;2024-02-28T05:23:18;19.08;;;8.88;;
78858;SDS011;68210;52.032;4.634;2024-02-28T05:25:19;21.40;;;10.48;;
78858;SDS011;68210;52.032;4.634;2024-02-28T05:27:19;17.08;;;10.00;;
78858;SDS011;68210;52.032;4.634;2024-02-28T05:29:19;20.73;;;10.43;;
78858;SDS011;68210;52.032;4.634;2024-02-28T05:31:23;18.83;;;10.43;;
78858;SDS011;68210;52.032;4.634;2024-02-28T05:33:25;22.55;;;11.80;;
78858;SDS011;68210;52.032;4.634;2024-02-28T05:35:25;18.77;;;10.93;;
78858;SDS011;68210;52.032;4.634;2024-02-28T05:37:26;21.08;;;11.05;;
78858;SDS011;68210;52.032;4.634;2024-02-28T05:39:29;20.38;;;10.80;;
78858;SDS011;68210;52.032;4.634;2024-02-28T05:41:30;20.45;;;11.05;;
78858;SDS011;68210;52.032;4.634;2024-02-28T05:43:31;23.70;;;11.02;;
78858;SDS011;68210;52.032;4.634;2024-02-28T05:45:31;17.80;;;9.95;;
78858;SDS011;68210;52.032;4.634;2024-02-28T05:47:32;19.67;;;11.77;;
78858;SDS011;68210;52.032;4.634;2024-02-28T05:49:33;23.10;;;11.93;;
78858;SDS011;68210;52.032;4.634;2024-02-28T05:51:33;24.60;;;12.63;;
78858;SDS011;68210;52.032;4.634;2024-02-28T05:53:34;19.52;;;11.43;;
78858;SDS011;68210;52.032;4.634;2024-02-28T05:55:38;23.55;;;11.80;;
78858;SDS011;68210;52.032;4.634;2024-02-28T05:57:39;19.90;;;11.95;;
78858;SDS011;68210;52.032;4.634;2024-02-28T05:59:39;24.80;;;11.82;;
78858;SDS011;68210;52.032;4.634;2024-02-28T06:01:39;21.42;;;11.68;;
78858;SDS011;68210;52.032;4.634;2024-02-28T06:03:40;20.90;;;12.65;;
78858;SDS011;68210;52.032;4.634;2024-02-28T06:05:41;20.48;;;12.30;;
78858;SDS011;68210;52.032;4.634;2024-02-28T06:07:41;20.50;;;12.20;;
78858;SDS011;68210;52.032;4.634;2024-02-28T06:09:41;23.52;;;11.93;;
78858;SDS011;68210;52.032;4.634;2024-02-28T06:11:42;24.33;;;13.50;;
78858;SDS011;68210;52.032;4.634;2024-02-28T06:13:42;19.60;;;11.10;;
78858;SDS011;68210;52.032;4.634;2024-02-28T06:15:43;20.45;;;12.40;;
78858;SDS011;68210;52.032;4.634;2024-02-28T06:17:43;21.42;;;12.15;;
78858;SDS011;68210;52.032;4.634;2024-02-28T06:19:43;27.10;;;13.07;;
78858;SDS011;68210;52.032;4.634;2024-02-28T06:21:44;23.05;;;12.35;;
78858;SDS011;68210;52.032;4.634;2024-02-28T06:23:45;26.67;;;13.93;;
78858;SDS011;68210;52.032;4.634;2024-02-28T06:25:45;20.27;;;11.77;;
78858;SDS011;68210;52.032;4.634;2024-02-28T06:27:46;21.80;;;12.23;;
78858;SDS011;68210;52.032;4.634;2024-02-28T06:29:46;22.38;;;12.30;;
78858;SDS011;68210;52.032;4.634;2024-02-28T06:31:50;18.88;;;11.00;;
78858;SDS011;68210;52.032;4.634;2024-02-28T06:33:51;24.48;;;12.48;;
78858;SDS011;68210;52.032;4.634;2024-02-28T06:35:52;21.48;;;11.75;;
78858;SDS011;68210;52.032;4.634;2024-02-28T06:37:52;22.05;;;12.07;;
78858;SDS011;68210;52.032;4.634;2024-02-28T06:39:53;23.13;;;12.27;;
78858;SDS011;68210;52.032;4.634;2024-02-28T06:41:53;19.70;;;12.10;;
78858;SDS011;68210;52.032;4.634;2024-02-28T06:43:54;26.00;;;12.73;;
78858;SDS011;68210;52.032;4.634;2024-02-28T06:45:54;19.98;;;12.30;;
78858;SDS011;68210;52.032;4.634;2024-02-28T06:47:55;25.63;;;12.88;;
78858;SDS011;68210;52.032;4.634;2024-02-28T06:49:55;23.80;;;13.38;;
78858;SDS011;68210;52.032;4.634;2024-02-28T06:51:55;24.17;;;13.18;;
78858;SDS011;68210;52.032;4.634;2024-02-28T06:53:59;19.00;;;12.25;;
78858;SDS011;68210;52.032;4.634;2024-02-28T06:56:00;25.60;;;13.50;;
78858;SDS011;68210;52.032;4.634;2024-02-28T06:58:01;23.67;;;11.63;;
78858;SDS011;68210;52.032;4.634;2024-02-28T07:02:32;20.40;;;13.55;;
78858;SDS011;68210;52.032;4.634;2024-02-28T07:05:08;23.33;;;12.25;;
78858;SDS011;68210;52.032;4.634;2024-02-28T07:07:10;24.15;;;12.93;;
78858;SDS011;68210;52.032;4.634;2024-02-28T07:09:12;21.23;;;12.05;;
78858;SDS011;68210;52.032;4.634;2024-02-28T07:11:54;21.75;;;12.32;;
78858;SDS011;68210;52.032;4.634;2024-02-28T07:13:59;22.30;;;13.10;;
78858;SDS011;68210;52.032;4.634;2024-02-28T07:16:02;23.10;;;13.35;;
78858;SDS011;68210;52.032;4.634;2024-02-28T07:18:02;22.85;;;12.32;;
78858;SDS011;68210;52.032;4.634;2024-02-28T07:20:03;22.05;;;11.93;;
78858;SDS011;68210;52.032;4.634;2024-02-28T07:22:10;26.52;;;12.48;;
78858;SDS011;68210;52.032;4.634;2024-02-28T07:24:10;20.55;;;12.10;;
78858;SDS011;68210;52.032;4.634;2024-02-28T07:26:14;24.83;;;13.15;;
78858;SDS011;68210;52.032;4.634;2024-02-28T07:28:15;22.42;;;12.95;;
78858;SDS011;68210;52.032;4.634;2024-02-28T07:30:16;23.00;;;12.98;;
78858;SDS011;68210;52.032;4.634;2024-02-28T07:32:16;27.08;;;12.75;;
78858;SDS011;68210;52.032;4.634;2024-02-28T07:34:17;25.63;;;12.70;;
78858;SDS011;68210;52.032;4.634;2024-02-28T07:36:20;17.60;;;10.73;;
78858;SDS011;68210;52.032;4.634;2024-02-28T07:38:20;21.20;;;12.55;;
78858;SDS011;68210;52.032;4.634;2024-02-28T07:40:21;21.77;;;13.00;;
78858;SDS011;68210;52.032;4.634;2024-02-28T07:42:21;19.80;;;11.38;;
78858;SDS011;68210;52.032;4.634;2024-02-28T07:44:21;24.35;;;12.75;;
78858;SDS011;68210;52.032;4.634;2024-02-28T07:46:29;24.70;;;13.45;;
78858;SDS011;68210;52.032;4.634;2024-02-28T07:48:42;20.58;;;12.13;;
78858;SDS011;68210;52.032;4.634;2024-02-28T07:50:45;22.40;;;12.55;;
78858;SDS011;68210;52.032;4.634;2024-02-28T07:55:22;23.65;;;12.57;;
78858;SDS011;68210;52.032;4.634;2024-02-28T07:57:26;22.83;;;12.57;;
78858;SDS011;68210;52.032;4.634;2024-02-28T08:01:44;21.90;;;13.23;;
78858;SDS011;68210;52.032;4.634;2024-02-28T08:06:18;21.67;;;12.32;;
78858;SDS011;68210;52.032;4.634;2024-02-28T08:09:03;19.58;;;11.98;;
78858;SDS011;68210;52.032;4.634;2024-02-28T08:11:25;21.10;;;13.68;;
78858;SDS011;68210;52.032;4.634;2024-02-28T08:13:54;22.90;;;13.82;;
78858;SDS011;68210;52.032;4.634;2024-02-28T08:22:10;22.13;;;12.75;;
78858;SDS011;68210;52.032;4.634;2024-02-28T08:24:11;22.90;;;13.95;;
78858;SDS011;68210;52.032;4.634;2024-02-28T08:26:11;27.08;;;13.10;;
78858;SDS011;68210;52.032;4.634;2024-02-28T08:28:12;26.85;;;14.85;;
78858;SDS011;68210;52.032;4.634;2024-02-28T08:30:12;22.85;;;13.68;;
78858;SDS011;68210;52.032;4.634;2024-02-28T08:32:13;25.58;;;13.77;;
78858;SDS011;68210;52.032;4.634;2024-02-28T08:37:09;22.00;;;12.43;;
78858;SDS011;68210;52.032;4.634;2024-02-28T08:39:09;27.50;;;13.35;;
78858;SDS011;68210;52.032;4.634;2024-02-28T08:41:11;23.27;;;13.85;;
78858;SDS011;68210;52.032;4.634;2024-02-28T08:43:12;23.83;;;14.63;;
78858;SDS011;68210;52.032;4.634;2024-02-28T08:45:13;23.23;;;13.30;;
78858;SDS011;68210;52.032;4.634;2024-02-28T08:47:13;22.65;;;13.48;;
78858;SDS011;68210;52.032;4.634;2024-02-28T08:49:14;22.17;;;13.27;;
78858;SDS011;68210;52.032;4.634;2024-02-28T08:51:15;25.88;;;14.20;;
78858;SDS011;68210;52.032;4.634;2024-02-28T08:53:15;26.98;;;14.00;;
78858;SDS011;68210;52.032;4.634;2024-02-28T08:55:16;27.05;;;13.20;;
78858;SDS011;68210;52.032;4.634;2024-02-28T08:57:18;25.55;;;13.70;;
78858;SDS011;68210;52.032;4.634;2024-02-28T08:59:23;28.83;;;13.73;;
78858;SDS011;68210;52.032;4.634;2024-02-28T09:01:23;25.17;;;13.80;;
78858;SDS011;68210;52.032;4.634;2024-02-28T09:03:24;31.75;;;14.88;;
78858;SDS011;68210;52.032;4.634;2024-02-28T09:05:24;26.40;;;13.50;;
78858;SDS011;68210;52.032;4.634;2024-02-28T09:07:25;27.80;;;14.57;;
78858;SDS011;68210;52.032;4.634;2024-02-28T09:09:25;30.05;;;15.07;;
78858;SDS011;68210;52.032;4.634;2024-02-28T09:11:51;29.40;;;15.15;;
78858;SDS011;68210;52.032;4.634;2024-02-28T09:14:08;28.45;;;13.82;;
78858;SDS011;68210;52.032;4.634;2024-02-28T09:16:12;24.90;;;14.65;;
78858;SDS011;68210;52.032;4.634;2024-02-28T09:18:20;24.52;;;13.35;;
78858;SDS011;68210;52.032;4.634;2024-02-28T09:38:39;24.95;;;13.93;;
78858;SDS011;68210;52.032;4.634;2024-02-28T09:40:50;32.30;;;15.00;;
78858;SDS011;68210;52.032;4.634;2024-02-28T09:43:05;22.42;;;13.75;;
78858;SDS011;68210;52.032;4.634;2024-02-28T09:45:15;23.00;;;13.73;;
78858;SDS011;68210;52.032;4.634;2024-02-28T09:47:34;25.55;;;14.13;;
78858;SDS011;68210;52.032;4.634;2024-02-28T09:52:32;24.58;;;15.23;;
78858;SDS011;68210;52.032;4.634;2024-02-28T10:01:13;24.73;;;12.77;;
78858;SDS011;68210;52.032;4.634;2024-02-28T10:03:18;23.92;;;13.40;;
78858;SDS011;68210;52.032;4.634;2024-02-28T10:05:22;26.50;;;14.15;;
78858;SDS011;68210;52.032;4.634;2024-02-28T10:10:36;28.38;;;14.00;;
78858;SDS011;68210;52.032;4.634;2024-02-28T10:12:41;24.30;;;14.20;;
78858;SDS011;68210;52.032;4.634;2024-02-28T10:14:42;24.60;;;13.02;;
78858;SDS011;68210;52.032;4.634;2024-02-28T10:16:43;28.88;;;14.05;;
78858;SDS011;68210;52.032;4.634;2024-02-28T10:18:43;23.45;;;13.48;;
78858;SDS011;68210;52.032;4.634;2024-02-28T10:20:44;22.73;;;12.60;;
78858;SDS011;68210;52.032;4.634;2024-02-28T10:22:45;29.77;;;14.13;;
78858;SDS011;68210;52.032;4.634;2024-02-28T10:24:45;22.73;;;12.68;;
78858;SDS011;68210;52.032;4.634;2024-02-28T10:26:46;24.17;;;13.18;;
78858;SDS011;68210;52.032;4.634;2024-02-28T10:30:55;25.37;;;12.90;;
78858;SDS011;68210;52.032;4.634;2024-02-28T10:38:36;23.15;;;13.40;;
78858;SDS011;68210;52.032;4.634;2024-02-28T10:40:39;21.05;;;13.15;;
78858;SDS011;68210;52.032;4.634;2024-02-28T10:42:51;22.65;;;12.43;;
78858;SDS011;68210;52.032;4.634;2024-02-28T10:47:42;22.73;;;13.15;;
78858;SDS011;68210;52.032;4.634;2024-02-28T10:49:43;22.05;;;13.30;;
78858;SDS011;68210;52.032;4.634;2024-02-28T10:51:46;23.05;;;12.85;;
78858;SDS011;68210;52.032;4.634;2024-02-28T10:53:49;21.42;;;11.77;;
78858;SDS011;68210;52.032;4.634;2024-02-28T10:55:53;18.63;;;10.60;;
78858;SDS011;68210;52.032;4.634;2024-02-28T10:58:01;18.45;;;10.45;;
78858;SDS011;68210;52.032;4.634;2024-02-28T11:03:07;17.33;;;9.68;;
78858;SDS011;68210;52.032;4.634;2024-02-28T11:07:10;20.27;;;8.87;;
78858;SDS011;68210;52.032;4.634;2024-02-28T11:09:10;16.98;;;9.82;;
78858;SDS011;68210;52.032;4.634;2024-02-28T11:11:14;18.05;;;9.85;;
78858;SDS011;68210;52.032;4.634;2024-02-28T11:13:22;15.68;;;9.38;;
78858;SDS011;68210;52.032;4.634;2024-02-28T11:15:47;15.55;;;9.50;;
78858;SDS011;68210;52.032;4.634;2024-02-28T11:20:17;15.20;;;9.30;;
78858;SDS011;68210;52.032;4.634;2024-02-28T11:25:43;14.73;;;8.82;;
78858;SDS011;68210;52.032;4.634;2024-02-28T11:36:27;16.88;;;9.50;;
78858;SDS011;68210;52.032;4.634;2024-02-28T11:38:38;16.10;;;9.15;;
78858;SDS011;68210;52.032;4.634;2024-02-28T11:46:32;14.52;;;9.38;;
78858;SDS011;68210;52.032;4.634;2024-02-28T11:48:33;18.55;;;9.13;;
78858;SDS011;68210;52.032;4.634;2024-02-28T11:50:37;16.95;;;9.40;;
78858;SDS011;68210;52.032;4.634;2024-02-28T11:52:37;18.20;;;9.55;;
78858;SDS011;68210;52.032;4.634;2024-02-28T11:54:38;16.63;;;9.55;;
78858;SDS011;68210;52.032;4.634;2024-02-28T11:56:39;20.27;;;8.68;;
78858;SDS011;68210;52.032;4.634;2024-02-28T11:58:49;14.38;;;8.65;;
78858;SDS011;68210;52.032;4.634;2024-02-28T12:01:38;17.17;;;9.20;;
78858;SDS011;68210;52.032;4.634;2024-02-28T12:03:44;16.45;;;8.65;;
78858;SDS011;68210;52.032;4.634;2024-02-28T12:05:45;15.82;;;8.48;;
78858;SDS011;68210;52.032;4.634;2024-02-28T12:07:45;15.55;;;8.95;;
78858;SDS011;68210;52.032;4.634;2024-02-28T12:09:46;14.52;;;8.82;;
78858;SDS011;68210;52.032;4.634;2024-02-28T12:11:49;17.15;;;9.15;;
78858;SDS011;68210;52.032;4.634;2024-02-28T12:13:52;19.40;;;9.63;;
78858;SDS011;68210;52.032;4.634;2024-02-28T12:15:55;18.30;;;10.55;;
78858;SDS011;68210;52.032;4.634;2024-02-28T12:21:39;20.48;;;10.35;;
78858;SDS011;68210;52.032;4.634;2024-02-28T12:23:35;20.67;;;10.70;;
78858;SDS011;68210;52.032;4.634;2024-02-28T12:32:11;24.42;;;13.57;;
78858;SDS011;68210;52.032;4.634;2024-02-28T12:34:12;28.83;;;14.07;;
78858;SDS011;68210;52.032;4.634;2024-02-28T12:36:15;28.02;;;13.80;;
78858;SDS011;68210;52.032;4.634;2024-02-28T12:38:15;25.33;;;12.25;;
78858;SDS011;68210;52.032;4.634;2024-02-28T12:40:16;25.98;;;12.75;;
78858;SDS011;68210;52.032;4.634;2024-02-28T12:42:17;20.15;;;10.98;;
78858;SDS011;68210;52.032;4.634;2024-02-28T12:44:20;22.35;;;12.15;;
78858;SDS011;68210;52.032;4.634;2024-02-28T12:49:00;24.17;;;12.43;;
78858;SDS011;68210;52.032;4.634;2024-02-28T12:53:39;24.83;;;13.18;;
78858;SDS011;68210;52.032;4.634;2024-02-28T12:55:40;22.77;;;11.85;;
78858;SDS011;68210;52.032;4.634;2024-02-28T12:57:42;21.27;;;11.52;;
78858;SDS011;68210;52.032;4.634;2024-02-28T12:59:45;25.10;;;12.15;;
78858;SDS011;68210;52.032;4.634;2024-02-28T13:01:45;24.15;;;12.35;;
78858;SDS011;68210;52.032;4.634;2024-02-28T13:03:50;28.25;;;12.60;;
78858;SDS011;68210;52.032;4.634;2024-02-28T13:08:06;22.17;;;12.13;;
78858;SDS011;68210;52.032;4.634;2024-02-28T13:12:41;21.75;;;11.73;;
78858;SDS011;68210;52.032;4.634;2024-02-28T13:14:42;20.50;;;9.93;;
78858;SDS011;68210;52.032;4.634;2024-02-28T13:16:42;21.05;;;11.50;;
78858;SDS011;68210;52.032;4.634;2024-02-28T13:18:46;23.80;;;12.10;;
78858;SDS011;68210;52.032;4.634;2024-02-28T13:20:55;19.23;;;10.60;;
78858;SDS011;68210;52.032;4.634;2024-02-28T13:22:56;24.40;;;12.63;;
78858;SDS011;68210;52.032;4.634;2024-02-28T13:24:56;22.63;;;13.45;;
78858;SDS011;68210;52.032;4.634;2024-02-28T13:26:56;24.02;;;11.88;;
78858;SDS011;68210;52.032;4.634;2024-02-28T13:29:06;27.35;;;15.35;;
78858;SDS011;68210;52.032;4.634;2024-02-28T13:31:07;27.00;;;14.88;;
78858;SDS011;68210;52.032;4.634;2024-02-28T13:33:09;26.60;;;14.48;;
78858;SDS011;68210;52.032;4.634;2024-02-28T13:35:09;28.15;;;14.77;;
78858;SDS011;68210;52.032;4.634;2024-02-28T13:37:10;27.25;;;15.35;;
78858;SDS011;68210;52.032;4.634;2024-02-28T13:39:11;28.55;;;14.20;;
78858;SDS011;68210;52.032;4.634;2024-02-28T13:41:11;28.70;;;14.75;;
78858;SDS011;68210;52.032;4.634;2024-02-28T13:43:12;34.03;;;17.17;;
78858;SDS011;68210;52.032;4.634;2024-02-28T13:45:13;30.33;;;15.30;;
78858;SDS011;68210;52.032;4.634;2024-02-28T13:47:13;30.80;;;16.25;;
78858;SDS011;68210;52.032;4.634;2024-02-28T13:49:14;30.88;;;15.82;;